sensor_id;sensor_type;location;lat;lon;timestamp;pressure;altitude;pressure_sealevel;temperature;humidity
58245;BME280;44550;43.864;25.986;2024-02-15T00:03:00;101694.53;;;6.17;100.00
58245;BME280;44550;43.864;25.986;2024-02-15T00:07:01;101709.66;;;6.27;100.00
58245;BME280;44550;43.864;25.986;2024-02-15T00:11:04;101711.63;;;6.33;100.00
58245;BME280;44550;43.864;25.986;2024-02-15T00:15:07;101710.38;;;6.23;100.00
58245;BME280;44550;43.864;25.986;2024-02-15T00:19:15;101699.09;;;6.23;100.00
58245;BME280;44550;43.864;25.986;2024-02-15T00:23:16;101717.63;;;6.32;100.00
58245;BME280;44550;43.864;25.986;2024-02-15T00:27:19;101712.22;;;6.26;100.00
58245;BME280;44550;43.864;25.986;2024-02-15T00:31:20;101707.53;;;6.17;100.00
58245;BME280;44550;43.864;25.986;2024-02-15T00:35:23;101704.78;;;6.14;100.00
58245;BME280;44550;43.864;25.986;2024-02-15T00:39:25;101674.56;;;5.94;100.00
58245;BME280;44550;43.864;25.986;2024-02-15T00:43:26;101706.56;;;6.15;100.00
58245;BME280;44550;43.864;25.986;2024-02-15T00:47:28;101706.75;;;6.20;100.00
58245;BME280;44550;43.864;25.986;2024-02-15T00:51:31;101684.72;;;6.10;100.00
58245;BME280;44550;43.864;25.986;2024-02-15T00:55:32;101712.41;;;6.09;100.00
58245;BME280;44550;43.864;25.986;2024-02-15T00:59:32;101710.44;;;5.83;100.00
58245;BME280;44550;43.864;25.986;2024-02-15T01:03:33;101708.97;;;5.89;100.00
58245;BME280;44550;43.864;25.986;2024-02-15T01:07:36;101707.03;;;5.85;100.00
58245;BME280;44550;43.864;25.986;2024-02-15T01:11:38;101695.09;;;5.68;100.00
58245;BME280;44550;43.864;25.986;2024-02-15T01:15:39;101684.25;;;5.78;100.00
58245;BME280;44550;43.864;25.986;2024-02-15T01:19:39;101704.75;;;5.72;100.00
58245;BME280;44550;43.864;25.986;2024-02-15T01:23:42;101712.63;;;5.74;100.00
58245;BME280;44550;43.864;25.986;2024-02-15T01:27:45;101712.63;;;5.74;100.00
58245;BME280;44550;43.864;25.986;2024-02-15T01:31:46;101720.28;;;5.71;100.00
58245;BME280;44550;43.864;25.986;2024-02-15T01:35:47;101698.28;;;5.62;100.00
58245;BME280;44550;43.864;25.986;2024-02-15T01:39:50;101714.78;;;5.63;100.00
58245;BME280;44550;43.864;25.986;2024-02-15T01:43:51;101719.75;;;5.79;100.00
58245;BME280;44550;43.864;25.986;2024-02-15T01:47:51;101721.28;;;5.74;100.00
58245;BME280;44550;43.864;25.986;2024-02-15T01:51:57;101722.69;;;5.87;100.00
58245;BME280;44550;43.864;25.986;2024-02-15T01:56:01;101724.59;;;5.91;100.00
58245;BME280;44550;43.864;25.986;2024-02-15T02:00:01;101728.31;;;5.96;100.00
58245;BME280;44550;43.864;25.986;2024-02-15T02:04:05;101721.03;;;5.89;100.00
58245;BME280;44550;43.864;25.986;2024-02-15T02:08:06;101729.75;;;5.89;100.00
58245;BME280;44550;43.864;25.986;2024-02-15T02:12:10;101727.41;;;5.96;100.00
58245;BME280;44550;43.864;25.986;2024-02-15T02:16:30;101711.28;;;6.03;100.00
58245;BME280;44550;43.864;25.986;2024-02-15T02:20:31;101726.66;;;6.19;100.00
58245;BME280;44550;43.864;25.986;2024-02-15T02:24:39;101722.13;;;6.15;100.00
58245;BME280;44550;43.864;25.986;2024-02-15T02:28:45;101734.81;;;6.07;100.00
58245;BME280;44550;43.864;25.986;2024-02-15T02:32:46;101739.66;;;6.19;100.00
58245;BME280;44550;43.864;25.986;2024-02-15T02:36:47;101738.59;;;6.37;100.00
58245;BME280;44550;43.864;25.986;2024-02-15T02:40:49;101740.44;;;6.62;100.00
58245;BME280;44550;43.864;25.986;2024-02-15T02:44:52;101682.09;;;6.53;100.00
58245;BME280;44550;43.864;25.986;2024-02-15T02:48:53;101743.97;;;7.09;100.00
58245;BME280;44550;43.864;25.986;2024-02-15T02:52:55;101736.81;;;7.03;100.00
58245;BME280;44550;43.864;25.986;2024-02-15T02:57:00;101741.28;;;6.83;100.00
58245;BME280;44550;43.864;25.986;2024-02-15T03:01:07;101744.13;;;6.67;100.00
58245;BME280;44550;43.864;25.986;2024-02-15T03:05:09;101737.47;;;6.75;100.00
58245;BME280;44550;43.864;25.986;2024-02-15T03:09:12;101700.69;;;6.42;100.00
58245;BME280;44550;43.864;25.986;2024-02-15T03:13:12;101735.19;;;6.60;100.00
58245;BME280;44550;43.864;25.986;2024-02-15T03:17:15;101713.66;;;6.63;100.00
58245;BME280;44550;43.864;25.986;2024-02-15T03:21:15;101720.19;;;6.53;100.00
58245;BME280;44550;43.864;25.986;2024-02-15T03:25:17;101730.88;;;6.61;100.00
58245;BME280;44550;43.864;25.986;2024-02-15T03:29:22;101732.47;;;6.57;100.00
58245;BME280;44550;43.864;25.986;2024-02-15T03:33:25;101724.91;;;6.63;100.00
58245;BME280;44550;43.864;25.986;2024-02-15T03:37:30;101731.59;;;6.79;100.00
58245;BME280;44550;43.864;25.986;2024-02-15T03:41:33;101731.69;;;6.82;100.00
58245;BME280;44550;43.864;25.986;2024-02-15T03:45:34;101729.63;;;6.73;100.00
58245;BME280;44550;43.864;25.986;2024-02-15T03:49:37;101733.44;;;6.59;100.00
58245;BME280;44550;43.864;25.986;2024-02-15T03:53:43;101705.41;;;6.29;100.00
58245;BME280;44550;43.864;25.986;2024-02-15T03:57:43;101741.25;;;6.38;100.00
58245;BME280;44550;43.864;25.986;2024-02-15T04:01:45;101741.56;;;6.46;100.00
58245;BME280;44550;43.864;25.986;2024-02-15T04:05:49;101739.34;;;6.34;100.00
58245;BME280;44550;43.864;25.986;2024-02-15T04:09:55;101740.25;;;6.34;100.00
58245;BME280;44550;43.864;25.986;2024-02-15T04:13:57;101746.84;;;6.26;100.00
58245;BME280;44550;43.864;25.986;2024-02-15T04:17:57;101744.38;;;6.29;100.00
58245;BME280;44550;43.864;25.986;2024-02-15T04:22:01;101645.66;;;5.44;100.00
58245;BME280;44550;43.864;25.986;2024-02-15T04:26:05;101719.41;;;5.70;100.00
58245;BME280;44550;43.864;25.986;2024-02-15T04:30:08;101707.22;;;5.69;100.00
58245;BME280;44550;43.864;25.986;2024-02-15T04:34:15;101759.94;;;6.08;100.00
58245;BME280;44550;43.864;25.986;2024-02-15T04:38:28;101762.47;;;6.28;100.00
58245;BME280;44550;43.864;25.986;2024-02-15T04:42:33;101759.38;;;6.16;100.00
58245;BME280;44550;43.864;25.986;2024-02-15T04:46:42;101755.94;;;5.96;100.00
58245;BME280;44550;43.864;25.986;2024-02-15T04:50:49;101701.91;;;5.66;100.00
58245;BME280;44550;43.864;25.986;2024-02-15T04:54:52;101772.50;;;5.78;100.00
58245;BME280;44550;43.864;25.986;2024-02-15T04:58:57;101776.22;;;5.64;100.00
58245;BME280;44550;43.864;25.986;2024-02-15T05:02:59;101780.16;;;5.75;100.00
58245;BME280;44550;43.864;25.986;2024-02-15T05:07:00;101783.13;;;5.63;100.00
58245;BME280;44550;43.864;25.986;2024-02-15T05:11:07;101791.84;;;5.65;100.00
58245;BME280;44550;43.864;25.986;2024-02-15T05:15:12;101797.16;;;5.69;100.00
58245;BME280;44550;43.864;25.986;2024-02-15T05:19:14;101802.91;;;5.61;100.00
58245;BME280;44550;43.864;25.986;2024-02-15T05:23:15;101795.41;;;5.48;100.00
58245;BME280;44550;43.864;25.986;2024-02-15T05:27:18;101811.84;;;5.49;100.00
58245;BME280;44550;43.864;25.986;2024-02-15T05:31:19;101807.16;;;5.03;100.00
58245;BME280;44550;43.864;25.986;2024-02-15T05:35:23;101776.66;;;4.42;100.00
58245;BME280;44550;43.864;25.986;2024-02-15T05:39:24;101821.50;;;4.41;100.00
58245;BME280;44550;43.864;25.986;2024-02-15T05:43:27;101826.50;;;4.20;100.00
58245;BME280;44550;43.864;25.986;2024-02-15T05:47:28;101834.44;;;4.07;100.00
58245;BME280;44550;43.864;25.986;2024-02-15T05:51:29;101834.56;;;3.92;100.00
58245;BME280;44550;43.864;25.986;2024-02-15T05:55:32;101836.84;;;3.86;100.00
58245;BME280;44550;43.864;25.986;2024-02-15T05:59:54;101838.91;;;4.09;100.00
58245;BME280;44550;43.864;25.986;2024-02-15T06:04:14;101818.19;;;4.09;100.00
58245;BME280;44550;43.864;25.986;2024-02-15T06:08:18;101846.50;;;4.06;100.00
58245;BME280;44550;43.864;25.986;2024-02-15T06:12:20;101833.31;;;4.18;100.00
58245;BME280;44550;43.864;25.986;2024-02-15T06:16:23;101787.88;;;4.07;100.00
58245;BME280;44550;43.864;25.986;2024-02-15T06:20:24;101854.13;;;4.55;100.00
58245;BME280;44550;43.864;25.986;2024-02-15T06:24:27;101865.69;;;4.98;100.00
58245;BME280;44550;43.864;25.986;2024-02-15T06:28:31;101861.00;;;5.46;100.00
58245;BME280;44550;43.864;25.986;2024-02-15T06:32:50;101860.53;;;5.74;100.00
58245;BME280;44550;43.864;25.986;2024-02-15T06:37:34;101862.31;;;6.34;100.00
58245;BME280;44550;43.864;25.986;2024-02-15T06:41:50;101862.81;;;7.11;100.00
58245;BME280;44550;43.864;25.986;2024-02-15T06:45:51;101862.25;;;7.65;100.00
58245;BME280;44550;43.864;25.986;2024-02-15T06:50:05;101867.00;;;8.24;100.00
58245;BME280;44550;43.864;25.986;2024-02-15T06:54:11;101863.78;;;8.84;96.65
58245;BME280;44550;43.864;25.986;2024-02-15T06:58:11;101865.78;;;9.50;91.04
58245;BME280;44550;43.864;25.986;2024-02-15T07:02:19;101859.22;;;9.95;86.78
58245;BME280;44550;43.864;25.986;2024-02-15T07:06:22;101822.69;;;9.34;83.00
58245;BME280;44550;43.864;25.986;2024-02-15T07:10:25;101858.97;;;9.25;81.62
58245;BME280;44550;43.864;25.986;2024-02-15T07:14:27;101858.50;;;9.40;82.91
58245;BME280;44550;43.864;25.986;2024-02-15T07:18:30;101858.97;;;9.55;81.23
58245;BME280;44550;43.864;25.986;2024-02-15T07:22:33;101855.88;;;9.38;78.86
58245;BME280;44550;43.864;25.986;2024-02-15T07:26:35;101851.19;;;8.98;78.48
58245;BME280;44550;43.864;25.986;2024-02-15T07:30:36;101835.09;;;8.57;79.52
58245;BME280;44550;43.864;25.986;2024-02-15T07:34:37;101795.44;;;8.40;82.77
58245;BME280;44550;43.864;25.986;2024-02-15T07:38:44;101856.88;;;8.86;80.18
58245;BME280;44550;43.864;25.986;2024-02-15T07:42:45;101852.28;;;9.06;80.27
58245;BME280;44550;43.864;25.986;2024-02-15T07:46:46;101860.00;;;9.03;77.68
58245;BME280;44550;43.864;25.986;2024-02-15T07:50:47;101853.25;;;9.10;78.47
58245;BME280;44550;43.864;25.986;2024-02-15T07:54:50;101853.16;;;9.07;78.25
58245;BME280;44550;43.864;25.986;2024-02-15T07:58:51;101848.47;;;8.95;79.24
58245;BME280;44550;43.864;25.986;2024-02-15T08:02:53;101852.25;;;9.05;77.07
58245;BME280;44550;43.864;25.986;2024-02-15T08:06:55;101806.56;;;8.62;78.70
58245;BME280;44550;43.864;25.986;2024-02-15T08:11:05;101847.25;;;9.12;76.66
58245;BME280;44550;43.864;25.986;2024-02-15T08:15:12;101863.09;;;8.63;79.98
58245;BME280;44550;43.864;25.986;2024-02-15T08:19:13;101862.28;;;8.92;80.92
58245;BME280;44550;43.864;25.986;2024-02-15T08:23:14;101858.91;;;8.68;78.91
58245;BME280;44550;43.864;25.986;2024-02-15T08:27:18;101830.50;;;8.50;81.82
58245;BME280;44550;43.864;25.986;2024-02-15T08:31:21;101768.13;;;8.29;81.91
58245;BME280;44550;43.864;25.986;2024-02-15T08:35:40;101841.56;;;9.26;80.97
58245;BME280;44550;43.864;25.986;2024-02-15T08:39:45;101808.50;;;8.96;78.72
58245;BME280;44550;43.864;25.986;2024-02-15T08:43:49;101844.00;;;9.20;80.10
58245;BME280;44550;43.864;25.986;2024-02-15T08:47:50;101839.91;;;9.28;79.92
58245;BME280;44550;43.864;25.986;2024-02-15T08:51:51;101798.53;;;9.41;77.36
58245;BME280;44550;43.864;25.986;2024-02-15T08:55:51;101839.78;;;10.17;75.78
58245;BME280;44550;43.864;25.986;2024-02-15T08:59:54;101841.91;;;10.31;76.05
58245;BME280;44550;43.864;25.986;2024-02-15T09:03:56;101836.06;;;10.42;75.42
58245;BME280;44550;43.864;25.986;2024-02-15T09:07:56;101836.66;;;10.30;74.50
58245;BME280;44550;43.864;25.986;2024-02-15T09:11:57;101836.47;;;10.24;75.27
58245;BME280;44550;43.864;25.986;2024-02-15T09:16:00;101830.28;;;10.20;74.15
58245;BME280;44550;43.864;25.986;2024-02-15T09:20:06;101840.69;;;10.52;72.61
58245;BME280;44550;43.864;25.986;2024-02-15T09:24:12;101833.94;;;10.60;74.92
58245;BME280;44550;43.864;25.986;2024-02-15T09:28:13;101828.66;;;10.96;71.02
58245;BME280;44550;43.864;25.986;2024-02-15T09:32:21;101829.56;;;11.38;70.28
58245;BME280;44550;43.864;25.986;2024-02-15T09:36:22;101795.97;;;11.18;71.17
58245;BME280;44550;43.864;25.986;2024-02-15T09:40:24;101814.91;;;11.47;70.44
58245;BME280;44550;43.864;25.986;2024-02-15T09:44:27;101800.53;;;11.71;69.23
58245;BME280;44550;43.864;25.986;2024-02-15T09:48:32;101809.56;;;11.85;70.02
58245;BME280;44550;43.864;25.986;2024-02-15T09:52:34;101803.06;;;12.12;69.46
58245;BME280;44550;43.864;25.986;2024-02-15T09:56:36;101800.91;;;11.45;70.85
58245;BME280;44550;43.864;25.986;2024-02-15T10:00:38;101795.34;;;11.72;70.95
58245;BME280;44550;43.864;25.986;2024-02-15T10:04:43;101796.34;;;11.79;70.75
58245;BME280;44550;43.864;25.986;2024-02-15T10:08:48;101788.75;;;11.93;71.66
58245;BME280;44550;43.864;25.986;2024-02-15T10:12:49;101788.13;;;12.08;70.76
58245;BME280;44550;43.864;25.986;2024-02-15T10:16:56;101790.75;;;12.08;72.53
58245;BME280;44550;43.864;25.986;2024-02-15T10:20:59;101770.47;;;11.96;71.23
58245;BME280;44550;43.864;25.986;2024-02-15T10:25:15;101778.56;;;11.64;74.01
58245;BME280;44550;43.864;25.986;2024-02-15T10:29:16;101777.16;;;11.82;75.20
58245;BME280;44550;43.864;25.986;2024-02-15T10:33:19;101774.41;;;11.30;77.09
58245;BME280;44550;43.864;25.986;2024-02-15T10:37:23;101765.59;;;11.69;76.19
58245;BME280;44550;43.864;25.986;2024-02-15T10:41:24;101768.44;;;11.83;75.37
58245;BME280;44550;43.864;25.986;2024-02-15T10:45:26;101763.66;;;12.06;72.86
58245;BME280;44550;43.864;25.986;2024-02-15T10:49:27;101761.03;;;12.06;71.80
58245;BME280;44550;43.864;25.986;2024-02-15T10:53:31;101747.75;;;11.96;70.86
58245;BME280;44550;43.864;25.986;2024-02-15T10:57:32;101752.34;;;12.10;71.75
58245;BME280;44550;43.864;25.986;2024-02-15T11:01:38;101743.38;;;11.97;71.57
58245;BME280;44550;43.864;25.986;2024-02-15T11:05:43;101742.94;;;11.72;73.43
58245;BME280;44550;43.864;25.986;2024-02-15T11:09:46;101725.03;;;11.95;71.38
58245;BME280;44550;43.864;25.986;2024-02-15T11:14:26;101744.19;;;12.48;69.53
58245;BME280;44550;43.864;25.986;2024-02-15T11:18:44;101741.47;;;12.40;69.82
58245;BME280;44550;43.864;25.986;2024-02-15T11:22:56;101733.25;;;12.18;69.22
58245;BME280;44550;43.864;25.986;2024-02-15T11:27:01;101726.56;;;12.37;68.56
58245;BME280;44550;43.864;25.986;2024-02-15T11:31:10;101728.38;;;12.41;69.08
58245;BME280;44550;43.864;25.986;2024-02-15T11:35:12;101723.75;;;12.87;67.30
58245;BME280;44550;43.864;25.986;2024-02-15T11:39:41;101712.63;;;12.40;69.97
58245;BME280;44550;43.864;25.986;2024-02-15T11:43:54;101719.72;;;12.47;70.69
58245;BME280;44550;43.864;25.986;2024-02-15T11:47:59;101719.13;;;12.65;70.98
58245;BME280;44550;43.864;25.986;2024-02-15T11:52:08;101715.63;;;12.67;69.13
58245;BME280;44550;43.864;25.986;2024-02-15T11:56:09;101707.44;;;13.10;66.17
58245;BME280;44550;43.864;25.986;2024-02-15T12:00:23;101703.88;;;13.05;63.37
58245;BME280;44550;43.864;25.986;2024-02-15T12:04:49;101711.69;;;13.00;62.41
58245;BME280;44550;43.864;25.986;2024-02-15T12:09:09;101699.53;;;13.08;63.02
58245;BME280;44550;43.864;25.986;2024-02-15T12:13:26;101684.66;;;13.09;62.65
58245;BME280;44550;43.864;25.986;2024-02-15T12:18:13;101698.19;;;13.43;60.95
58245;BME280;44550;43.864;25.986;2024-02-15T12:22:37;101672.66;;;13.28;62.48
58245;BME280;44550;43.864;25.986;2024-02-15T12:26:47;101695.94;;;13.78;59.86
58245;BME280;44550;43.864;25.986;2024-02-15T12:30:54;101692.63;;;14.02;58.85
58245;BME280;44550;43.864;25.986;2024-02-15T12:35:12;101690.75;;;13.89;58.96
58245;BME280;44550;43.864;25.986;2024-02-15T12:39:24;101685.47;;;13.85;58.95
58245;BME280;44550;43.864;25.986;2024-02-15T12:43:25;101678.88;;;13.37;60.17
58245;BME280;44550;43.864;25.986;2024-02-15T12:47:26;101686.97;;;13.59;60.84
58245;BME280;44550;43.864;25.986;2024-02-15T12:51:30;101688.06;;;13.81;58.70
58245;BME280;44550;43.864;25.986;2024-02-15T12:55:36;101640.53;;;13.56;57.42
58245;BME280;44550;43.864;25.986;2024-02-15T12:59:38;101676.34;;;13.47;58.68
58245;BME280;44550;43.864;25.986;2024-02-15T13:03:42;101683.63;;;13.75;57.98
58245;BME280;44550;43.864;25.986;2024-02-15T13:07:46;101684.56;;;13.82;58.24
58245;BME280;44550;43.864;25.986;2024-02-15T13:11:46;101683.63;;;13.77;58.84
58245;BME280;44550;43.864;25.986;2024-02-15T13:15:49;101684.63;;;13.88;57.76
58245;BME280;44550;43.864;25.986;2024-02-15T13:19:56;101681.91;;;13.80;55.74
58245;BME280;44550;43.864;25.986;2024-02-15T13:24:05;101682.00;;;13.91;53.58
58245;BME280;44550;43.864;25.986;2024-02-15T13:28:11;101678.63;;;14.07;53.33
58245;BME280;44550;43.864;25.986;2024-02-15T13:32:11;101688.19;;;13.96;54.32
58245;BME280;44550;43.864;25.986;2024-02-15T13:36:14;101681.22;;;14.01;53.67
58245;BME280;44550;43.864;25.986;2024-02-15T13:40:18;101680.31;;;13.98;53.51
58245;BME280;44550;43.864;25.986;2024-02-15T13:44:26;101676.84;;;14.06;52.96
58245;BME280;44550;43.864;25.986;2024-02-15T13:48:29;101676.91;;;14.11;52.98
58245;BME280;44550;43.864;25.986;2024-02-15T13:52:51;101671.84;;;14.42;52.11
58245;BME280;44550;43.864;25.986;2024-02-15T13:57:05;101684.91;;;14.28;52.81
58245;BME280;44550;43.864;25.986;2024-02-15T14:01:05;101676.13;;;14.24;52.67
58245;BME280;44550;43.864;25.986;2024-02-15T14:05:41;101681.41;;;14.27;52.58
58245;BME280;44550;43.864;25.986;2024-02-15T14:09:45;101682.22;;;14.19;52.56
58245;BME280;44550;43.864;25.986;2024-02-15T14:14:03;101681.19;;;14.00;53.23
58245;BME280;44550;43.864;25.986;2024-02-15T14:18:11;101666.19;;;13.86;53.45
58245;BME280;44550;43.864;25.986;2024-02-15T14:22:14;101653.16;;;14.02;53.06
58245;BME280;44550;43.864;25.986;2024-02-15T14:26:20;101687.53;;;14.28;53.00
58245;BME280;44550;43.864;25.986;2024-02-15T14:30:27;101653.34;;;14.28;53.16
58245;BME280;44550;43.864;25.986;2024-02-15T14:35:00;101679.72;;;14.40;52.18
58245;BME280;44550;43.864;25.986;2024-02-15T14:39:03;101680.50;;;14.27;53.48
58245;BME280;44550;43.864;25.986;2024-02-15T14:43:04;101649.72;;;14.09;52.50
58245;BME280;44550;43.864;25.986;2024-02-15T14:47:17;101669.72;;;13.89;52.75
58245;BME280;44550;43.864;25.986;2024-02-15T14:51:18;101671.41;;;13.83;53.73
58245;BME280;44550;43.864;25.986;2024-02-15T14:55:24;101664.41;;;13.84;53.49
58245;BME280;44550;43.864;25.986;2024-02-15T14:59:33;101682.16;;;14.11;53.17
58245;BME280;44550;43.864;25.986;2024-02-15T15:03:38;101675.09;;;14.05;52.67
58245;BME280;44550;43.864;25.986;2024-02-15T15:07:41;101688.19;;;13.99;53.71
58245;BME280;44550;43.864;25.986;2024-02-15T15:12:01;101657.44;;;13.89;53.78
58245;BME280;44550;43.864;25.986;2024-02-15T15:16:20;101682.22;;;14.20;53.51
58245;BME280;44550;43.864;25.986;2024-02-15T15:20:26;101686.63;;;14.23;53.28
58245;BME280;44550;43.864;25.986;2024-02-15T15:24:26;101689.19;;;14.15;52.33
58245;BME280;44550;43.864;25.986;2024-02-15T15:28:30;101683.75;;;13.91;53.36
58245;BME280;44550;43.864;25.986;2024-02-15T15:32:37;101689.91;;;13.93;53.20
58245;BME280;44550;43.864;25.986;2024-02-15T15:36:41;101682.94;;;13.98;53.19
58245;BME280;44550;43.864;25.986;2024-02-15T15:40:43;101688.28;;;14.10;53.30
58245;BME280;44550;43.864;25.986;2024-02-15T15:44:46;101699.50;;;13.88;53.93
58245;BME280;44550;43.864;25.986;2024-02-15T15:48:49;101700.41;;;13.91;53.97
58245;BME280;44550;43.864;25.986;2024-02-15T15:53:02;101706.41;;;13.76;54.44
58245;BME280;44550;43.864;25.986;2024-02-15T15:57:03;101709.19;;;13.92;53.97
58245;BME280;44550;43.864;25.986;2024-02-15T16:01:13;101705.75;;;14.03;53.91
58245;BME280;44550;43.864;25.986;2024-02-15T16:05:17;101715.47;;;14.14;53.30
58245;BME280;44550;43.864;25.986;2024-02-15T16:09:20;101720.00;;;14.30;53.07
58245;BME280;44550;43.864;25.986;2024-02-15T16:13:22;101694.56;;;14.33;52.74
58245;BME280;44550;43.864;25.986;2024-02-15T16:17:26;101716.50;;;14.32;52.77
58245;BME280;44550;43.864;25.986;2024-02-15T16:21:31;101734.13;;;14.46;53.05
58245;BME280;44550;43.864;25.986;2024-02-15T16:25:39;101735.81;;;14.31;54.45
58245;BME280;44550;43.864;25.986;2024-02-15T16:29:49;101693.47;;;13.99;54.64
58245;BME280;44550;43.864;25.986;2024-02-15T16:33:50;101744.66;;;14.41;53.90
58245;BME280;44550;43.864;25.986;2024-02-15T16:37:53;101747.31;;;14.49;53.47
58245;BME280;44550;43.864;25.986;2024-02-15T16:41:55;101761.34;;;14.48;52.71
58245;BME280;44550;43.864;25.986;2024-02-15T16:45:56;101731.47;;;14.40;52.42
58245;BME280;44550;43.864;25.986;2024-02-15T16:50:08;101727.97;;;14.38;52.28
58245;BME280;44550;43.864;25.986;2024-02-15T16:54:18;101745.63;;;14.51;52.01
58245;BME280;44550;43.864;25.986;2024-02-15T16:58:39;101762.38;;;14.65;52.41
58245;BME280;44550;43.864;25.986;2024-02-15T17:02:47;101769.16;;;14.36;56.92
58245;BME280;44550;43.864;25.986;2024-02-15T17:06:48;101766.25;;;14.02;61.81
58245;BME280;44550;43.864;25.986;2024-02-15T17:11:06;101779.97;;;13.73;64.56
58245;BME280;44550;43.864;25.986;2024-02-15T17:15:12;101778.03;;;13.57;67.13
58245;BME280;44550;43.864;25.986;2024-02-15T17:19:16;101787.47;;;13.39;68.42
58245;BME280;44550;43.864;25.986;2024-02-15T17:23:21;101789.19;;;13.34;68.84
58245;BME280;44550;43.864;25.986;2024-02-15T17:27:25;101787.25;;;13.23;69.39
58245;BME280;44550;43.864;25.986;2024-02-15T17:31:31;101800.25;;;13.12;69.81
58245;BME280;44550;43.864;25.986;2024-02-15T17:35:34;101796.66;;;13.05;70.07
58245;BME280;44550;43.864;25.986;2024-02-15T17:39:37;101776.44;;;12.98;70.67
58245;BME280;44550;43.864;25.986;2024-02-15T17:43:41;101799.28;;;13.05;71.09
58245;BME280;44550;43.864;25.986;2024-02-15T17:47:50;101805.31;;;12.98;71.73
58245;BME280;44550;43.864;25.986;2024-02-15T17:51:54;101802.69;;;12.98;72.18
58245;BME280;44550;43.864;25.986;2024-02-15T17:55:59;101751.38;;;12.61;73.13
58245;BME280;44550;43.864;25.986;2024-02-15T18:00:03;101763.72;;;12.65;73.96
58245;BME280;44550;43.864;25.986;2024-02-15T18:04:12;101797.06;;;12.72;75.08
58245;BME280;44550;43.864;25.986;2024-02-15T18:08:14;101796.03;;;12.62;76.13
58245;BME280;44550;43.864;25.986;2024-02-15T18:12:18;101802.25;;;12.69;76.38
58245;BME280;44550;43.864;25.986;2024-02-15T18:16:23;101802.25;;;12.69;77.04
58245;BME280;44550;43.864;25.986;2024-02-15T18:20:29;101807.63;;;12.77;76.87
58245;BME280;44550;43.864;25.986;2024-02-15T18:24:29;101810.25;;;12.77;77.11
58245;BME280;44550;43.864;25.986;2024-02-15T18:28:29;101812.09;;;12.82;77.23
58245;BME280;44550;43.864;25.986;2024-02-15T18:32:30;101817.44;;;12.88;77.12
58245;BME280;44550;43.864;25.986;2024-02-15T18:36:37;101826.34;;;13.01;76.98
58245;BME280;44550;43.864;25.986;2024-02-15T18:40:41;101832.50;;;13.03;76.92
58245;BME280;44550;43.864;25.986;2024-02-15T18:44:42;101832.53;;;13.06;76.90
58245;BME280;44550;43.864;25.986;2024-02-15T18:48:43;101827.47;;;13.20;76.34
58245;BME280;44550;43.864;25.986;2024-02-15T18:52:47;101825.59;;;13.08;76.80
58245;BME280;44550;43.864;25.986;2024-02-15T18:56:49;101837.97;;;13.19;76.65
58245;BME280;44550;43.864;25.986;2024-02-15T19:00:54;101834.38;;;13.12;76.58
58245;BME280;44550;43.864;25.986;2024-02-15T19:04:58;101839.16;;;12.81;77.85
58245;BME280;44550;43.864;25.986;2024-02-15T19:09:11;101839.50;;;12.48;79.70
58245;BME280;44550;43.864;25.986;2024-02-15T19:13:19;101831.78;;;12.56;80.29
58245;BME280;44550;43.864;25.986;2024-02-15T19:17:22;101834.22;;;12.43;81.72
58245;BME280;44550;43.864;25.986;2024-02-15T19:21:29;101836.16;;;12.57;81.73
58245;BME280;44550;43.864;25.986;2024-02-15T19:25:31;101821.75;;;12.30;81.90
58245;BME280;44550;43.864;25.986;2024-02-15T19:29:31;101831.06;;;12.14;83.21
58245;BME280;44550;43.864;25.986;2024-02-15T19:33:35;101841.19;;;11.94;85.50
58245;BME280;44550;43.864;25.986;2024-02-15T19:37:53;101839.38;;;11.89;86.22
58245;BME280;44550;43.864;25.986;2024-02-15T19:41:55;101840.38;;;11.95;86.71
58245;BME280;44550;43.864;25.986;2024-02-15T19:45:56;101837.50;;;11.85;74.80
58245;BME280;44550;43.864;25.986;2024-02-15T19:50:02;101839.97;;;11.77;75.99
58245;BME280;44550;43.864;25.986;2024-02-15T19:54:03;101822.84;;;11.52;73.96
58245;BME280;44550;43.864;25.986;2024-02-15T19:58:06;101821.13;;;11.12;73.06
58245;BME280;44550;43.864;25.986;2024-02-15T20:02:07;101852.00;;;10.87;73.50
58245;BME280;44550;43.864;25.986;2024-02-15T20:06:07;101855.97;;;10.71;71.65
58245;BME280;44550;43.864;25.986;2024-02-15T20:10:08;101859.50;;;10.37;71.19
58245;BME280;44550;43.864;25.986;2024-02-15T20:14:12;101875.22;;;10.07;72.08
58245;BME280;44550;43.864;25.986;2024-02-15T20:18:12;101867.19;;;9.69;70.48
58245;BME280;44550;43.864;25.986;2024-02-15T20:22:12;101888.63;;;9.57;71.46
58245;BME280;44550;43.864;25.986;2024-02-15T20:26:14;101882.06;;;9.70;72.08
58245;BME280;44550;43.864;25.986;2024-02-15T20:30:18;101888.72;;;9.60;71.72
58245;BME280;44550;43.864;25.986;2024-02-15T20:34:23;101879.44;;;9.70;71.07
58245;BME280;44550;43.864;25.986;2024-02-15T20:38:24;101880.41;;;9.74;71.44
58245;BME280;44550;43.864;25.986;2024-02-15T20:42:32;101878.72;;;9.76;70.22
58245;BME280;44550;43.864;25.986;2024-02-15T20:46:38;101885.16;;;9.88;69.77
58245;BME280;44550;43.864;25.986;2024-02-15T20:50:41;101888.94;;;10.00;69.32
58245;BME280;44550;43.864;25.986;2024-02-15T20:54:42;101889.72;;;9.96;69.23
58245;BME280;44550;43.864;25.986;2024-02-15T20:58:46;101885.38;;;9.96;69.36
58245;BME280;44550;43.864;25.986;2024-02-15T21:02:49;101879.41;;;10.00;69.58
58245;BME280;44550;43.864;25.986;2024-02-15T21:06:55;101883.66;;;9.97;68.52